Time;durP1;ratioP1;P1;durP2;ratioP2;P2;SDS_P1;SDS_P2;PMS_P1;PMS_P2;Temp;Humidity;BMP_temperature;BMP_pressure;BME280_temperature;BME280_humidity;BME280_pressure;Samples;Min_cycle;Max_cycle;Signal;HPM_P1;HPM_P2
2022/06/18 00:00:38;;;;;;;2.93;2.73;;;;;;;19.70;100.00;101627.31;4999166;28;20670;-71
2022/06/18 00:03:03;;;;;;;7.60;2.73;;;;;;;19.69;100.00;101624.81;5002220;28;20979;-71
2022/06/18 00:05:31;;;;;;;3.80;3.33;;;;;;;19.75;100.00;101641.00;5005382;28;20219;-71
2022/06/18 00:07:57;;;;;;;5.57;3.30;;;;;;;19.71;100.00;101641.75;5003036;28;20189;-71
2022/06/18 00:10:26;;;;;;;3.07;2.77;;;;;;;19.47;100.00;101611.84;5003114;28;20470;-71
2022/06/18 00:15:38;;;;;;;5.53;3.40;;;;;;;19.69;100.00;101631.09;5002916;28;20542;-71
2022/06/18 00:18:11;;;;;;;4.43;3.40;;;;;;;19.67;100.00;101621.50;5003218;28;20491;-71
2022/06/18 00:20:37;;;;;;;4.63;2.93;;;;;;;19.68;100.00;101617.72;5003133;28;20514;-70
2022/06/18 00:23:05;;;;;;;4.40;3.70;;;;;;;19.15;100.00;101541.53;5001962;28;20439;-71
2022/06/18 00:25:35;;;;;;;6.90;3.40;;;;;;;19.59;100.00;101623.50;5003585;28;20468;-70
2022/06/18 00:28:02;;;;;;;3.63;2.97;;;;;;;19.61;100.00;101610.50;5005166;28;20438;-70
2022/06/18 00:30:29;;;;;;;3.27;3.03;;;;;;;19.32;100.00;101576.13;5001965;28;20454;-71
2022/06/18 00:32:55;;;;;;;4.83;3.70;;;;;;;19.45;100.00;101589.47;5004879;28;20535;-71
2022/06/18 00:35:20;;;;;;;4.63;3.70;;;;;;;19.50;100.00;101589.59;5003706;28;20965;-71
2022/06/18 00:37:50;;;;;;;5.90;3.70;;;;;;;19.55;100.00;101607.91;5006126;28;20186;-70
2022/06/18 00:40:39;;;;;;;4.50;3.63;;;;;;;19.58;100.00;101607.41;5003040;28;20204;-70
2022/06/18 00:43:20;;;;;;;4.30;3.57;;;;;;;19.62;100.00;101595.00;5002993;28;20431;-71
2022/06/18 00:45:45;;;;;;;3.50;3.20;;;;;;;19.30;100.00;101537.47;5003618;28;20471;-71
2022/06/18 00:48:20;;;;;;;6.00;3.67;;;;;;;19.55;100.00;101597.84;4999841;28;20471;-70
2022/06/18 00:51:00;;;;;;;7.70;3.77;;;;;;;19.24;100.00;101541.97;5000872;28;20185;-70
2022/06/18 00:53:33;;;;;;;4.27;3.20;;;;;;;19.56;100.00;101598.69;5002743;28;20438;-70
2022/06/18 00:56:01;;;;;;;8.83;4.17;;;;;;;19.55;100.00;101586.94;5000727;28;20478;-71
2022/06/18 00:58:40;;;;;;;4.80;3.70;;;;;;;19.51;100.00;101580.34;5000786;28;21123;-71
2022/06/18 01:01:18;;;;;;;5.07;3.20;;;;;;;19.49;100.00;101574.31;4999257;28;20436;-71
2022/06/18 01:03:46;;;;;;;5.23;3.50;;;;;;;18.92;100.00;101485.28;4999561;28;20894;-70
2022/06/18 01:06:18;;;;;;;4.20;3.80;;;;;;;19.46;100.00;101582.94;4998606;28;20464;-70
2022/06/18 01:08:46;;;;;;;5.13;3.57;;;;;;;19.39;100.00;101566.78;5002484;28;20435;-71
2022/06/18 01:11:19;;;;;;;8.63;3.37;;;;;;;19.48;100.00;101569.13;4995129;28;20450;-70
2022/06/18 01:13:44;;;;;;;3.80;3.50;;;;;;;19.49;100.00;101577.03;4997439;28;20848;-70
2022/06/18 01:16:11;;;;;;;4.03;2.90;;;;;;;19.31;100.00;101547.28;4999934;28;20550;-71
2022/06/18 01:18:38;;;;;;;4.23;3.23;;;;;;;19.58;100.00;101588.38;4997464;28;20688;-70
2022/06/18 01:21:35;;;;;;;2.77;2.57;;;;;;;19.70;100.00;101589.22;4996246;28;20456;-70
2022/06/18 01:24:19;;;;;;;3.83;3.00;;;;;;;19.40;100.00;101556.72;4986494;28;20471;-71
2022/06/18 01:26:47;;;;;;;4.43;2.60;;;;;;;19.50;100.00;101562.38;4998202;28;20821;-71
2022/06/18 01:29:12;;;;;;;8.13;4.27;;;;;;;19.24;100.00;101533.81;5000793;28;20448;-71
2022/06/18 01:31:38;;;;;;;4.00;3.47;;;;;;;19.48;100.00;101569.13;5000217;28;20455;-71
2022/06/18 01:34:06;;;;;;;4.87;3.67;;;;;;;19.53;100.00;101589.09;5001096;28;21069;-70
2022/06/18 01:36:33;;;;;;;5.10;3.43;;;;;;;19.57;100.00;101573.94;5001238;28;20195;-71
2022/06/18 01:39:01;;;;;;;3.60;3.30;;;;;;;19.40;100.00;101551.28;5001977;28;20467;-71
2022/06/18 01:44:17;;;;;;;4.07;3.67;;;;;;;19.53;100.00;101570.06;4998507;28;20897;-71
2022/06/18 01:46:46;;;;;;;3.80;2.57;;;;;;;19.53;100.00;101564.63;5000971;28;20553;-71
2022/06/18 01:49:15;;;;;;;3.23;2.93;;;;;;;19.54;100.00;101565.44;4998817;28;20446;-71
2022/06/18 01:51:47;;;;;;;3.40;3.10;;;;;;;19.53;100.00;101570.06;5000675;28;20436;-71
2022/06/18 01:54:21;;;;;;;4.50;3.00;;;;;;;19.58;100.00;101563.88;4999138;28;20443;-70
2022/06/18 01:56:52;;;;;;;4.47;3.60;;;;;;;19.49;100.00;101552.53;5000094;28;20597;-71
2022/06/18 01:59:34;;;;;;;4.17;3.60;;;;;;;19.56;100.00;101558.69;4998966;28;20433;-71
2022/06/18 02:02:03;;;;;;;4.17;3.00;;;;;;;19.40;100.00;101559.44;4997692;28;20498;-71
2022/06/18 02:04:30;;;;;;;3.53;3.00;;;;;;;19.02;100.00;101509.13;5000945;28;20838;-71
2022/06/18 02:06:55;;;;;;;4.03;3.63;;;;;;;19.02;100.00;101517.28;4999615;28;20454;-70
2022/06/18 02:09:26;;;;;;;5.20;4.00;;;;;;;19.25;100.00;101567.28;5001455;28;20441;-71
2022/06/18 02:11:54;;;;;;;3.80;3.40;;;;;;;19.12;100.00;101547.44;4997497;28;20212;-71
2022/06/18 02:14:21;;;;;;;4.30;3.90;;;;;;;19.22;100.00;101562.31;5000232;28;20488;-71
2022/06/18 02:16:48;;;;;;;4.70;4.30;;;;;;;19.23;100.00;101555.78;4996125;28;20458;-71
2022/06/18 02:19:16;;;;;;;4.63;3.43;;;;;;;19.05;100.00;101535.84;4998272;28;20443;-71
2022/06/18 02:21:46;;;;;;;3.60;3.07;;;;;;;19.21;100.00;101556.06;4995458;28;20483;-71
2022/06/18 02:24:11;;;;;;;3.10;2.80;;;;;;;18.96;100.00;101496.50;4999465;28;20463;-70
2022/06/18 02:26:40;;;;;;;3.20;2.90;;;;;;;19.07;100.00;101511.97;4997846;28;20809;-71
2022/06/18 02:29:19;;;;;;;3.47;3.17;;;;;;;19.32;100.00;101540.75;4998755;28;20242;-71
2022/06/18 02:31:45;;;;;;;5.40;3.23;;;;;;;18.90;100.00;101492.03;5000002;28;20448;-71
2022/06/18 02:34:17;;;;;;;4.67;3.50;;;;;;;18.95;100.00;101503.84;4998468;28;20451;-70
2022/06/18 02:36:42;;;;;;;4.17;3.00;;;;;;;19.23;100.00;101544.91;4997097;28;20441;-71
2022/06/18 02:39:07;;;;;;;3.33;3.07;;;;;;;19.25;100.00;101540.06;4996815;28;20954;-71
2022/06/18 02:41:34;;;;;;;5.80;3.60;;;;;;;18.77;100.00;101470.50;4999008;28;20224;-71
2022/06/18 02:44:00;;;;;;;5.93;3.73;;;;;;;19.14;100.00;101528.97;4995657;28;20243;-71
2022/06/18 02:46:26;;;;;;;4.43;3.70;;;;;;;19.15;100.00;101517.03;4996847;28;20936;-71
2022/06/18 02:48:52;;;;;;;3.50;3.20;;;;;;;19.01;100.00;101488.47;4998771;28;20238;-71
2022/06/18 02:51:18;;;;;;;7.87;4.70;;;;;;;19.20;100.00;101511.69;4999411;28;20242;-70
2022/06/18 02:53:44;;;;;;;6.47;4.37;;;;;;;19.39;100.00;101545.00;4998568;28;20517;-71
2022/06/18 02:56:13;;;;;;;4.60;4.03;;;;;;;19.34;100.00;101550.34;4995589;28;20971;-71
2022/06/18 02:58:43;;;;;;;7.13;4.93;;;;;;;19.16;100.00;101520.59;4997714;28;20235;-71
2022/06/18 03:01:17;;;;;;;6.77;4.27;;;;;;;19.20;100.00;101530.72;4996724;28;20447;-71
2022/06/18 03:03:47;;;;;;;4.90;4.47;;;;;;;19.22;100.00;101538.66;4999689;28;20465;-71
2022/06/18 03:06:13;;;;;;;6.00;4.53;;;;;;;19.11;100.00;101526.72;5000800;28;20833;-70
2022/06/18 03:08:39;;;;;;;4.73;4.30;;;;;;;19.16;100.00;101543.16;4994003;28;20476;-70
2022/06/18 03:13:50;;;;;;;5.70;4.70;;;;;;;19.12;100.00;101558.31;5000143;28;20275;-70
2022/06/18 03:16:19;;;;;;;6.10;5.10;;;;;;;19.17;100.00;101580.16;4994945;28;20478;-70
2022/06/18 03:18:46;;;;;;;6.93;4.93;;;;;;;18.82;100.00;101522.28;4999470;28;20518;-71
2022/06/18 03:21:23;;;;;;;8.77;5.03;;;;;;;19.27;100.00;101584.19;4993504;28;20923;-70
2022/06/18 03:23:49;;;;;;;6.70;5.00;;;;;;;18.66;100.00;101516.47;4994152;28;20498;-71
2022/06/18 03:26:16;;;;;;;7.00;5.67;;;;;;;19.04;100.00;101588.56;5000407;28;20497;-71
2022/06/18 03:28:43;;;;;;;6.80;5.23;;;;;;;18.86;100.00;101558.78;4999260;28;20644;-70
2022/06/18 03:31:09;;;;;;;6.73;5.57;;;;;;;19.18;100.00;101595.44;5000023;28;20444;-70
2022/06/18 03:33:34;;;;;;;7.33;6.60;;;;;;;18.71;100.00;101557.31;4999580;28;20798;-70
2022/06/18 03:36:02;;;;;;;9.30;7.10;;;;;;;18.88;100.00;101592.81;4998958;28;20260;-70
2022/06/18 03:38:28;;;;;;;7.10;6.40;;;;;;;18.45;100.00;101545.00;4997865;28;20192;-70
2022/06/18 03:40:53;;;;;;;8.53;6.70;;;;;;;18.90;100.00;101603.47;4994850;28;20739;-70
2022/06/18 03:43:20;;;;;;;6.90;5.83;;;;;;;18.85;100.00;101595.19;4999231;28;20527;-70
2022/06/18 03:45:48;;;;;;;6.37;5.77;;;;;;;18.70;100.00;101603.75;4999696;28;20291;-70
2022/06/18 03:48:29;;;;;;;7.50;6.07;;;;;;;18.69;100.00;101575.78;4996652;28;20478;-70
2022/06/18 03:50:55;;;;;;;6.40;5.30;;;;;;;18.57;100.00;101593.94;4997218;28;20444;-70
2022/06/18 03:53:21;;;;;;;6.80;6.10;;;;;;;18.66;100.00;101613.44;5000729;28;20483;-71
2022/06/18 03:55:47;;;;;;;9.00;6.97;;;;;;;18.45;100.00;101606.66;4998234;28;20209;-70
2022/06/18 03:58:13;;;;;;;9.80;7.50;;;;;;;18.58;100.00;101619.22;5000192;28;20949;-70
2022/06/18 04:00:39;;;;;;;7.70;6.13;;;;;;;18.62;100.00;101626.66;5000937;28;20459;-70
2022/06/18 04:03:05;;;;;;;7.40;6.20;;;;;;;18.55;100.00;101615.09;4999753;28;20440;-70
2022/06/18 04:05:35;;;;;;;10.93;7.00;;;;;;;18.61;100.00;101635.06;4999848;28;20490;-70
2022/06/18 04:08:00;;;;;;;8.80;6.30;;;;;;;18.50;100.00;101637.50;4999469;28;20188;-70
2022/06/18 04:10:26;;;;;;;9.13;6.90;;;;;;;17.86;100.00;101538.63;4997990;28;20452;-70
2022/06/18 04:12:51;;;;;;;7.77;5.73;;;;;;;18.26;100.00;101622.22;4998681;28;20876;-70
2022/06/18 04:15:19;;;;;;;11.83;7.77;;;;;;;18.22;100.00;101656.28;4999360;28;20689;-71
2022/06/18 04:17:45;;;;;;;9.93;6.53;;;;;;;18.29;100.00;101636.16;4999097;28;20625;-70
2022/06/18 04:20:20;;;;;;;12.10;6.90;;;;;;;18.36;100.00;101648.78;4997120;28;20455;-70
2022/06/18 04:22:45;;;;;;;9.60;7.00;;;;;;;18.16;100.00;101632.78;4996175;28;20526;-71
2022/06/18 04:25:11;;;;;;;12.60;7.00;;;;;;;18.20;100.00;101634.00;4996387;28;20558;-70
2022/06/18 04:27:37;;;;;;;9.90;6.30;;;;;;;18.39;100.00;101648.34;4998051;28;20563;-70
2022/06/18 04:30:03;;;;;;;10.07;7.03;;;;;;;18.27;100.00;101621.13;5001451;28;20192;-70
2022/06/18 04:32:29;;;;;;;10.67;7.70;;;;;;;18.10;100.00;101607.38;4999236;28;20445;-70
2022/06/18 04:34:54;;;;;;;12.93;6.73;;;;;;;18.02;100.00;101588.69;4999276;28;20474;-70
2022/06/18 04:37:19;;;;;;;8.13;7.07;;;;;;;18.12;100.00;101566.44;5000425;28;20196;-70
2022/06/18 04:39:45;;;;;;;12.60;8.40;;;;;;;18.37;100.00;101645.88;4995379;28;20453;-70
2022/06/18 04:42:10;;;;;;;15.80;8.63;;;;;;;18.33;100.00;101641.94;5000096;28;20193;-70
2022/06/18 04:44:36;;;;;;;10.53;7.97;;;;;;;18.05;100.00;101605.38;4998632;28;20235;-70
2022/06/18 04:47:01;;;;;;;9.43;6.20;;;;;;;18.19;100.00;101595.13;5000668;28;20666;-70
2022/06/18 04:49:26;;;;;;;14.77;8.67;;;;;;;18.36;100.00;101643.38;4999005;28;20317;-70
2022/06/18 04:51:52;;;;;;;9.87;7.03;;;;;;;18.22;100.00;101602.81;5004122;28;20195;-71
2022/06/18 04:54:17;;;;;;;11.17;8.17;;;;;;;18.12;100.00;101624.28;4997431;28;20188;-71
2022/06/18 04:56:43;;;;;;;10.37;6.80;;;;;;;18.10;100.00;101596.53;4995517;28;20190;-71
2022/06/18 04:59:08;;;;;;;8.07;7.00;;;;;;;18.32;100.00;101620.47;4999258;28;20794;-71
2022/06/18 05:01:33;;;;;;;8.00;6.90;;;;;;;18.17;100.00;101585.59;4999382;28;20197;-71
2022/06/18 05:03:59;;;;;;;14.43;7.03;;;;;;;18.38;100.00;101625.78;5001086;28;20282;-71
2022/06/18 05:06:25;;;;;;;11.97;6.77;;;;;;;18.43;100.00;101638.69;4995754;28;20204;-71
2022/06/18 05:08:51;;;;;;;8.47;6.97;;;;;;;18.53;100.00;101639.75;4993835;28;21243;-71
2022/06/18 05:11:16;;;;;;;14.40;8.40;;;;;;;18.15;100.00;101588.53;4998904;28;20501;-71
2022/06/18 05:13:41;;;;;;;9.47;7.60;;;;;;;18.21;100.00;101609.31;4999190;28;20652;-71
2022/06/18 05:16:08;;;;;;;16.40;7.33;;;;;;;18.07;100.00;101613.28;4998995;28;20224;-71
2022/06/18 05:18:34;;;;;;;13.00;9.50;;;;;;;18.59;100.00;101659.72;4997873;28;20192;-71
2022/06/18 05:21:00;;;;;;;9.50;7.33;;;;;;;18.44;100.00;101614.00;5000856;28;20447;-71
2022/06/18 05:23:27;;;;;;;12.47;7.47;;;;;;;18.52;100.00;101640.00;4995181;28;21578;-71
2022/06/18 05:25:56;;;;;;;11.97;7.40;;;;;;;18.19;100.00;101599.75;5022859;22;20488;-68
2022/06/18 05:28:22;;;;;;;10.87;7.93;;;;;;;18.35;100.00;101623.53;4996512;28;20476;-68
2022/06/18 05:30:47;;;;;;;10.67;8.00;;;;;;;18.50;100.00;101650.25;4994973;28;20539;-68
2022/06/18 05:33:12;;;;;;;13.27;8.90;;;;;;;18.01;100.00;101616.91;4998411;28;20186;-68
2022/06/18 05:35:41;;;;;;;15.07;9.37;;;;;;;18.51;100.00;101674.50;4995872;28;20761;-69
2022/06/18 05:38:07;;;;;;;12.30;9.47;;;;;;;18.37;100.00;101650.44;4994713;28;20200;-69
2022/06/18 05:40:33;;;;;;;11.83;6.77;;;;;;;18.64;100.00;101686.22;5000865;28;20434;-68
2022/06/18 05:42:58;;;;;;;12.30;7.70;;;;;;;17.98;100.00;101598.38;4992385;28;20882;-68
2022/06/18 05:45:23;;;;;;;15.70;7.23;;;;;;;18.47;100.00;101658.88;4989786;28;20217;-68
2022/06/18 05:47:49;;;;;;;14.00;7.20;;;;;;;18.51;100.00;101665.50;4993979;28;20190;-68
2022/06/18 05:50:17;;;;;;;12.27;6.67;;;;;;;18.43;100.00;101644.94;4994956;28;20189;-68
2022/06/18 05:52:43;;;;;;;12.53;7.00;;;;;;;18.24;100.00;101627.84;4993304;28;20184;-68
2022/06/18 05:55:09;;;;;;;13.67;6.37;;;;;;;18.62;100.00;101658.44;4993753;28;20444;-68
2022/06/18 05:57:44;;;;;;;10.33;6.40;;;;;;;18.59;100.00;101675.22;4998432;28;20223;-68
2022/06/18 06:00:13;;;;;;;14.30;7.40;;;;;;;18.82;100.00;101693.50;4993140;28;20198;-68
2022/06/18 06:02:38;;;;;;;11.37;6.20;;;;;;;18.60;100.00;101669.56;4994225;28;21128;-68
2022/06/18 06:05:04;;;;;;;10.80;6.00;;;;;;;18.96;100.00;101705.81;4999974;28;20460;-69
2022/06/18 06:07:30;;;;;;;9.40;5.77;;;;;;;19.04;100.00;101705.50;4999671;28;20213;-69
2022/06/18 06:12:39;;;;;;;6.87;5.83;;;;;;;19.04;100.00;101699.22;5000601;28;20193;-69
2022/06/18 06:15:06;;;;;;;6.53;4.80;;;;;;;19.17;100.00;101699.81;4999586;28;20428;-68
2022/06/18 06:17:32;;;;;;;6.20;4.70;;;;;;;18.90;100.00;101647.78;5001650;28;20192;-68
2022/06/18 06:20:07;;;;;;;8.57;5.00;;;;;;;19.04;100.00;101675.56;4998434;28;20453;-68
2022/06/18 06:22:34;;;;;;;11.67;6.73;;;;;;;19.16;100.00;101673.69;5000073;28;20191;-68
2022/06/18 06:24:59;;;;;;;7.50;4.40;;;;;;;18.73;100.00;101609.59;4999995;28;20464;-68
2022/06/18 06:27:24;;;;;;;6.50;4.10;;;;;;;19.13;100.00;101674.16;4998837;28;21048;-68
2022/06/18 06:29:50;;;;;;;8.90;5.57;;;;;;;18.92;100.00;101642.13;5001551;28;20188;-68
2022/06/18 06:32:15;;;;;;;10.50;5.83;;;;;;;19.16;100.00;101667.44;5000192;28;20575;-68
2022/06/18 06:34:41;;;;;;;6.20;4.57;;;;;;;19.16;100.00;101657.38;5000326;28;20181;-68
2022/06/18 06:37:06;;;;;;;5.30;3.90;;;;;;;19.05;100.00;101613.88;4999231;28;20252;-68
2022/06/18 06:39:31;;;;;;;5.57;4.57;;;;;;;19.50;100.00;101684.81;5000448;28;20181;-69
2022/06/18 06:41:57;;;;;;;6.80;4.43;;;;;;;19.22;100.00;101635.75;4999088;28;20197;-69
2022/06/18 06:44:22;;;;;;;6.93;4.77;;;;;;;19.57;100.00;101690.94;5000039;28;20208;-69
2022/06/18 06:46:48;;;;;;;6.80;3.77;;;;;;;19.56;100.00;101686.59;5000766;28;20205;-68
2022/06/18 06:49:13;;;;;;;8.37;4.43;;;;;;;19.47;100.00;101657.22;4999408;28;20185;-68
2022/06/18 06:51:39;;;;;;;11.07;3.90;;;;;;;19.78;100.00;101705.03;4999513;28;20201;-68
2022/06/18 06:54:06;;;;;;;6.60;3.37;;;;;;;19.70;100.00;101699.94;5001512;28;20185;-68
2022/06/18 06:59:16;;;;;;;9.93;4.20;;;;;;;19.31;100.00;101631.59;5000650;28;20443;-68
2022/06/18 07:01:42;;;;;;;3.53;2.73;;;;;;;19.75;100.00;101697.34;5000592;28;20464;-66
2022/06/18 07:04:10;;;;;;;5.73;3.43;;;;;;;19.78;100.00;101705.84;4999907;28;20674;-66
2022/06/18 07:06:36;;;;;;;9.70;3.80;;;;;;;20.03;100.00;101729.25;5000240;28;20205;-66
2022/06/18 07:09:03;;;;;;;6.67;4.47;;;;;;;20.00;100.00;101725.13;5001307;28;20435;-66
2022/06/18 07:11:28;;;;;;;7.23;4.20;;;;;;;19.58;100.00;101654.50;5000873;28;20551;-68
2022/06/18 07:13:54;;;;;;;10.53;4.03;;;;;;;19.61;100.00;101653.19;4999727;28;20423;-68
2022/06/18 07:16:19;;;;;;;5.50;3.53;;;;;;;19.96;100.00;101710.34;4998905;28;20209;-68
2022/06/18 07:18:45;;;;;;;7.57;4.27;;;;;;;19.41;100.00;101634.53;4998369;28;20185;-68
2022/06/18 07:21:15;;;;;;;4.27;3.27;;;;;;;20.02;100.00;101722.16;5000236;28;20192;-65
2022/06/18 07:23:41;;;;;;;4.67;4.00;;;;;;;19.80;100.00;101686.56;4999619;28;20233;-68
2022/06/18 07:26:06;;;;;;;8.07;4.30;;;;;;;19.64;100.00;101659.00;4997112;28;20491;-67
2022/06/18 07:28:32;;;;;;;5.40;2.97;;;;;;;20.04;100.00;101699.06;4999160;28;20189;-68
2022/06/18 07:30:58;;;;;;;4.13;2.77;;;;;;;19.76;100.00;101672.63;4998543;28;20189;-68
2022/06/18 07:33:25;;;;;;;5.40;3.40;;;;;;;19.96;100.00;101712.22;4997694;28;20181;-67
2022/06/18 07:35:51;;;;;;;6.00;3.50;;;;;;;19.61;100.00;101661.34;4999374;28;20991;-68
2022/06/18 07:38:17;;;;;;;3.17;2.87;;;;;;;19.48;100.00;101637.97;4998174;28;20440;-68
2022/06/18 07:40:47;;;;;;;3.80;2.20;;;;;;;20.12;100.00;101738.72;4998203;28;20802;-67
2022/06/18 07:43:19;;;;;;;5.00;3.10;;;;;;;20.15;100.00;101743.66;4998040;28;20255;-68
2022/06/18 07:45:46;;;;;;;4.23;2.87;;;;;;;20.17;100.00;101751.63;4999610;28;20444;-68
2022/06/18 07:48:13;;;;;;;3.53;2.77;;;;;;;20.17;100.00;101746.16;5000086;28;20420;-68
2022/06/18 07:50:42;;;;;;;8.03;3.00;;;;;;;20.14;100.00;101735.75;4999888;28;20936;-68
2022/06/18 07:53:13;;;;;;;4.30;2.60;;;;;;;20.08;100.00;101730.19;5001134;28;20436;-68
2022/06/18 07:55:38;;;;;;;5.23;2.47;;;;;;;19.96;100.00;101713.06;4999188;28;20892;-68
2022/06/18 07:58:03;;;;;;;7.20;2.93;;;;;;;19.98;100.00;101727.25;4999312;28;20522;-68
2022/06/18 08:00:29;;;;;;;6.03;2.77;;;;;;;19.79;100.00;101703.97;4999906;28;20185;-68
2022/06/18 08:02:54;;;;;;;5.00;2.50;;;;;;;20.17;100.00;101744.25;4998613;28;20185;-67
2022/06/18 08:05:23;;;;;;;3.10;2.37;;;;;;;20.26;100.00;101750.16;4998911;28;20211;-68
2022/06/18 08:07:50;;;;;;;10.33;3.17;;;;;;;20.19;100.00;101763.94;5014086;28;20197;-68
2022/06/18 08:10:16;;;;;;;3.73;2.30;;;;;;;20.27;100.00;101754.53;4999723;28;20425;-68
2022/06/18 08:12:41;;;;;;;3.33;2.30;;;;;;;19.74;100.00;101647.53;5004340;28;20424;-68
2022/06/18 08:15:09;;;;;;;2.93;2.20;;;;;;;19.97;100.00;101692.94;5006348;28;20596;-68
2022/06/18 08:17:36;;;;;;;4.20;2.30;;;;;;;19.90;100.00;101665.00;5007053;28;20189;-68
2022/06/18 08:20:03;;;;;;;6.90;2.67;;;;;;;20.48;100.00;101758.47;5004761;28;20887;-68
2022/06/18 08:22:29;;;;;;;4.10;2.60;;;;;;;20.24;100.00;101731.31;5004649;28;20452;-68
2022/06/18 08:24:55;;;;;;;4.10;2.60;;;;;;;20.25;100.00;101746.63;5004653;28;20460;-68
2022/06/18 08:27:21;;;;;;;4.53;2.83;;;;;;;20.39;100.00;101738.16;5003693;28;20833;-68
2022/06/18 08:29:47;;;;;;;9.47;2.40;;;;;;;20.51;100.00;101764.31;5004649;28;20188;-68
2022/06/18 08:32:13;;;;;;;4.43;2.80;;;;;;;20.06;100.00;101688.75;5008715;28;20424;-69
2022/06/18 08:34:38;;;;;;;5.00;2.57;;;;;;;20.49;100.00;101766.44;5005835;28;20512;-68
2022/06/18 08:37:06;;;;;;;4.47;2.50;;;;;;;20.45;100.00;101765.28;5003543;28;20205;-68
2022/06/18 08:39:33;;;;;;;4.80;2.20;;;;;;;20.06;100.00;101707.81;5005071;28;20219;-68
2022/06/18 08:42:09;;;;;;;4.83;2.50;;;;;;;20.47;100.00;101762.28;5004073;28;20463;-68
2022/06/18 08:44:51;;;;;;;2.47;1.80;;;;;;;20.60;100.00;101775.69;5004695;28;20455;-68
2022/06/18 08:47:30;;;;;;;4.53;2.20;;;;;;;20.45;100.00;101781.63;5003090;28;20443;-68
2022/06/18 08:50:41;;;;;;;4.50;1.70;;;;;;;20.14;100.00;101741.19;5005678;28;20408;-68
2022/06/18 08:53:13;;;;;;;3.80;1.20;;;;;;;20.53;100.00;101767.63;5005389;28;20428;-66
2022/06/18 08:55:53;;;;;;;4.30;1.50;;;;;;;20.55;100.00;101767.38;5004150;28;20455;-66
2022/06/18 08:58:18;;;;;;;3.57;1.20;;;;;;;20.57;100.00;101778.88;5005812;28;20834;-66
2022/06/18 09:01:16;;;;;;;1.33;1.00;;;;;;;20.69;100.00;101770.66;5004127;28;20474;-66
2022/06/18 09:04:00;;;;;;;3.53;1.03;;;;;;;20.72;100.00;101778.34;5003518;28;20205;-66
2022/06/18 09:07:05;;;;;;;1.73;0.80;;;;;;;20.78;100.00;101780.09;5003695;28;20865;-66
2022/06/18 09:09:30;;;;;;;2.00;0.77;;;;;;;20.76;100.00;101788.50;5003506;28;20412;-66
2022/06/18 09:12:02;;;;;;;1.27;0.80;;;;;;;20.82;100.00;101791.34;5003302;28;20455;-66
2022/06/18 09:14:38;;;;;;;0.90;0.70;;;;;;;20.75;100.00;101784.13;5004278;28;20260;-66
2022/06/18 09:17:26;;;;;;;1.40;0.80;;;;;;;20.79;100.00;101795.38;5003631;28;20502;-65
2022/06/18 09:20:02;;;;;;;1.10;0.60;;;;;;;20.74;100.00;101800.72;5007125;28;20495;-66
2022/06/18 09:22:30;;;;;;;1.47;0.90;;;;;;;20.54;100.00;101749.41;5004535;28;20424;-66
2022/06/18 09:25:02;;;;;;;2.63;0.83;;;;;;;20.57;100.00;101746.19;5003306;28;20456;-66
2022/06/18 09:27:43;;;;;;;2.67;0.80;;;;;;;20.65;100.00;101783.09;5004022;28;20476;-66
2022/06/18 09:30:25;;;;;;;1.87;0.80;;;;;;;20.45;100.00;101738.03;5003399;28;20600;-66
2022/06/18 09:32:57;;;;;;;1.93;0.80;;;;;;;20.76;100.00;101793.97;5004199;28;20417;-66
2022/06/18 09:35:41;;;;;;;0.83;0.70;;;;;;;20.33;100.00;101724.41;5003936;28;20510;-66
2022/06/18 09:38:14;;;;;;;1.47;0.77;;;;;;;20.53;100.00;101755.91;5003663;28;20551;-66
2022/06/18 09:40:47;;;;;;;0.97;0.73;;;;;;;20.69;100.00;101767.94;5003644;28;20508;-66
2022/06/18 09:43:37;;;;;;;2.10;0.60;;;;;;;20.89;100.00;101783.84;5002736;28;20438;-66
2022/06/18 09:46:12;;;;;;;1.50;0.70;;;;;;;20.96;100.00;101787.25;5003545;28;21026;-66
2022/06/18 09:48:38;;;;;;;1.30;0.80;;;;;;;21.04;100.00;101789.56;5003769;28;20498;-66
2022/06/18 09:51:14;;;;;;;1.27;0.90;;;;;;;21.03;100.00;101796.09;5002704;28;20518;-66
2022/06/18 09:53:42;;;;;;;3.10;1.20;;;;;;;20.92;100.00;101797.00;5003682;28;20879;-65
2022/06/18 09:56:20;;;;;;;1.50;0.80;;;;;;;21.09;100.00;101806.03;5001830;28;20451;-66
2022/06/18 09:58:51;;;;;;;1.43;0.90;;;;;;;20.94;100.00;101787.50;5004449;28;20531;-66
2022/06/18 10:01:20;;;;;;;1.63;0.90;;;;;;;20.97;100.00;101797.91;5004286;28;20413;-66
2022/06/18 10:06:52;;;;;;;2.00;1.00;;;;;;;20.77;100.00;101771.09;5003828;28;20470;-66
2022/06/18 10:09:44;;;;;;;1.53;1.00;;;;;;;20.79;100.00;101757.19;5002564;28;20990;-67
2022/06/18 10:12:22;;;;;;;3.37;1.20;;;;;;;20.65;100.00;101744.94;5002134;28;20443;-66
2022/06/18 10:14:55;;;;;;;2.20;1.03;;;;;;;20.79;100.00;101786.38;5002006;28;20424;-66
2022/06/18 10:17:38;;;;;;;2.20;0.90;;;;;;;21.05;100.00;101784.94;5002680;28;20551;-66
2022/06/18 10:20:24;;;;;;;1.50;0.70;;;;;;;21.10;100.00;101782.31;5001910;28;20912;-66
2022/06/18 10:23:03;;;;;;;1.47;0.87;;;;;;;21.01;100.00;101779.16;5001154;28;20451;-66
2022/06/18 10:25:52;;;;;;;1.17;0.70;;;;;;;20.72;100.00;101786.53;5001499;28;21004;-66
2022/06/18 10:28:47;;;;;;;1.40;0.80;;;;;;;21.05;100.00;101779.47;5002625;28;20858;-66
2022/06/18 10:31:35;;;;;;;1.13;0.90;;;;;;;21.13;100.00;101788.09;5001703;28;21059;-66
2022/06/18 10:34:13;;;;;;;1.97;1.03;;;;;;;21.17;100.00;101778.31;5001788;28;20417;-66
2022/06/18 10:37:01;;;;;;;1.20;0.70;;;;;;;21.18;100.00;101768.25;5002078;28;20444;-66
2022/06/18 10:39:29;;;;;;;2.10;0.90;;;;;;;21.17;100.00;101778.31;5002643;28;20439;-66
2022/06/18 10:42:22;;;;;;;1.60;0.90;;;;;;;20.95;100.00;101769.22;5001592;28;20490;-66
2022/06/18 10:45:20;;;;;;;1.77;0.80;;;;;;;21.05;100.00;101777.56;5002172;28;20499;-67
2022/06/18 10:47:50;;;;;;;1.17;0.70;;;;;;;20.68;100.00;101698.94;5002783;28;20420;-66
2022/06/18 10:50:19;;;;;;;1.63;1.00;;;;;;;21.16;100.00;101778.59;5001726;28;20436;-65
2022/06/18 10:53:04;;;;;;;1.23;0.67;;;;;;;21.37;100.00;101766.97;5001991;28;20887;-66
2022/06/18 10:55:30;;;;;;;2.30;1.03;;;;;;;21.16;100.00;101743.94;5002207;28;20546;-66
2022/06/18 10:58:13;;;;;;;3.43;0.90;;;;;;;21.20;100.00;101728.75;5001795;28;20479;-66
2022/06/18 11:00:40;;;;;;;1.50;0.90;;;;;;;21.38;100.00;101778.72;5001654;28;20420;-66
2022/06/18 11:03:20;;;;;;;1.40;0.90;;;;;;;21.57;100.00;101760.16;5002024;28;20451;-66
2022/06/18 11:05:47;;;;;;;1.30;0.77;;;;;;;21.57;100.00;101760.16;5001226;28;20471;-65
2022/06/18 11:08:25;;;;;;;0.90;0.60;;;;;;;21.57;100.00;101766.44;5001262;28;20435;-66
2022/06/18 11:10:55;;;;;;;2.00;0.70;;;;;;;21.44;100.00;101753.16;5000766;28;20456;-66
2022/06/18 11:13:24;;;;;;;1.97;0.87;;;;;;;21.10;100.00;101663.09;5000674;28;20423;-66
2022/06/18 11:16:03;;;;;;;2.23;1.23;;;;;;;21.54;100.00;101741.56;5002725;28;20852;-66
2022/06/18 11:18:28;;;;;;;1.70;0.80;;;;;;;21.44;100.00;101704.84;5002339;28;20417;-66
2022/06/18 11:21:01;;;;;;;2.00;1.00;;;;;;;20.91;100.00;101683.50;5001230;28;20800;-66
2022/06/18 11:23:27;;;;;;;0.97;0.80;;;;;;;21.51;100.00;101755.72;5001635;28;20180;-66
2022/06/18 11:25:57;;;;;;;2.07;1.00;;;;;;;21.13;100.00;101678.97;5001197;28;20503;-66
2022/06/18 11:28:48;;;;;;;1.90;0.80;;;;;;;21.62;100.00;101717.41;5000903;28;20545;-66
2022/06/18 11:31:24;;;;;;;1.30;0.87;;;;;;;21.58;100.00;101713.53;5000427;28;20432;-66
2022/06/18 11:33:58;;;;;;;4.63;1.80;;;;;;;21.48;100.00;101707.09;5000892;28;20428;-66
2022/06/18 11:36:52;;;;;;;2.50;1.03;;;;;;;21.69;100.00;101758.16;5000617;28;20448;-67
2022/06/18 11:39:33;;;;;;;2.00;0.90;;;;;;;21.76;100.00;101772.47;4999838;28;20511;-67
2022/06/18 11:42:16;;;;;;;1.63;0.93;;;;;;;21.03;100.00;101669.78;4998711;28;20432;-66
2022/06/18 11:44:57;;;;;;;1.40;0.90;;;;;;;21.54;100.00;101722.47;5000642;28;20550;-67
2022/06/18 11:47:32;;;;;;;2.97;1.10;;;;;;;21.11;100.00;101771.13;5002916;28;20530;-66